createdAt,value
2023-01-12T00:02:26.664Z,7.46
2023-01-12T00:04:54.355Z,7.52
2023-01-12T00:07:22.062Z,7.64
2023-01-12T00:09:49.699Z,7.32
2023-01-12T00:12:17.493Z,7.35
2023-01-12T00:14:45.461Z,7.53
2023-01-12T00:17:17.109Z,7.59
2023-01-12T00:19:44.748Z,7.39
2023-01-12T00:22:12.760Z,7.44
2023-01-12T00:24:49.847Z,7.41
2023-01-12T00:27:20.082Z,7.60
2023-01-12T00:29:49.174Z,7.50
2023-01-12T00:32:20.396Z,7.50
2023-01-12T00:34:48.068Z,7.61
2023-01-12T00:37:15.967Z,7.65
2023-01-12T00:39:53.127Z,7.16
2023-01-12T00:42:43.486Z,7.21
2023-01-12T00:45:23.891Z,7.47
2023-01-12T00:47:52.053Z,7.52
2023-01-12T00:50:19.899Z,7.67
2023-01-12T00:52:47.688Z,7.61
2023-01-12T06:12:12.898Z,4.10
2023-01-12T06:14:40.331Z,4.31
2023-01-12T06:17:07.838Z,4.06
2023-01-12T06:19:35.460Z,3.95
2023-01-12T06:22:02.944Z,3.79
2023-01-12T06:24:30.420Z,3.68
2023-01-12T06:26:58.635Z,3.80
2023-01-12T06:29:26.310Z,3.71
2023-01-12T06:31:53.723Z,3.72
2023-01-12T06:34:21.189Z,3.75
2023-01-12T06:36:49.469Z,3.87
2023-01-12T06:39:24.659Z,3.81
2023-01-12T06:42:29.408Z,3.65
2023-01-12T06:45:01.184Z,3.73
2023-01-12T06:47:32.067Z,3.63
2023-01-12T06:50:01.072Z,3.75
2023-01-12T06:52:30.366Z,3.84
2023-01-12T06:55:11.313Z,3.83
2023-01-12T06:57:40.652Z,3.72
2023-01-12T07:00:10.143Z,3.79
2023-01-12T07:02:37.936Z,3.80
2023-01-12T07:05:06.909Z,3.86
2023-01-12T07:07:34.970Z,3.93
2023-01-12T07:10:02.349Z,4.19
2023-01-12T07:12:30.471Z,4.31
2023-01-12T07:14:59.422Z,4.32
2023-01-12T07:17:27.651Z,4.08
2023-01-12T07:19:56.072Z,4.33
2023-01-12T07:22:26.083Z,4.60
2023-01-12T07:24:56.479Z,4.78
2023-01-12T07:27:28.063Z,4.87
2023-01-12T07:29:56.687Z,4.82
2023-01-12T07:32:27.472Z,4.92
2023-01-12T07:34:55.110Z,4.91
2023-01-12T07:37:22.686Z,4.73
2023-01-12T07:39:50.196Z,4.73
2023-01-12T07:42:23.492Z,5.07
2023-01-12T07:44:52.250Z,5.24
2023-01-12T07:47:19.734Z,5.45
2023-01-12T07:49:47.357Z,5.35
2023-01-12T07:52:16.302Z,5.08
2023-01-12T07:54:50.583Z,5.64
2023-01-12T07:57:18.914Z,5.64
2023-01-12T07:59:46.266Z,5.70
2023-01-12T08:02:17.451Z,5.82
2023-01-12T08:04:46.098Z,6.09
2023-01-12T08:07:14.913Z,6.19
2023-01-12T08:09:42.389Z,5.96
2023-01-12T08:12:10.483Z,5.55
2023-01-12T08:14:40.458Z,5.51
2023-01-12T08:17:12.881Z,5.53
2023-01-12T08:19:46.090Z,5.89
2023-01-12T08:22:19.076Z,5.49
2023-01-12T08:24:54.513Z,5.80
2023-01-12T08:27:25.817Z,5.64
2023-01-12T08:29:57.518Z,5.74
2023-01-12T08:32:28.598Z,5.95
2023-01-12T08:35:01.753Z,6.12
2023-01-12T08:37:31.217Z,6.25
2023-01-12T08:39:58.736Z,6.49
2023-01-12T08:42:29.671Z,6.67
2023-01-12T08:44:58.344Z,6.38
2023-01-12T08:47:28.303Z,6.32
2023-01-12T08:49:59.179Z,6.24
2023-01-12T08:52:45.314Z,6.28
2023-01-12T08:55:12.913Z,6.19
2023-01-12T08:57:40.375Z,6.74
2023-01-12T09:00:14.226Z,7.10
2023-01-12T09:02:41.815Z,7.15
2023-01-12T09:05:09.536Z,7.20
2023-01-12T09:07:37.271Z,7.27
2023-01-12T09:10:06.447Z,7.12
2023-01-12T09:12:33.804Z,7.35
2023-01-12T09:15:01.089Z,6.92
2023-01-12T09:17:28.741Z,6.88
2023-01-12T09:19:56.103Z,7.27
2023-01-12T09:22:24.293Z,7.40
2023-01-12T09:24:51.744Z,7.54
2023-01-12T09:27:19.085Z,7.80
2023-01-12T09:29:46.629Z,8.00
2023-01-12T09:32:14.055Z,8.20
2023-01-12T09:34:41.501Z,8.30
2023-01-12T09:37:08.951Z,8.21
2023-01-12T09:39:36.305Z,8.26
2023-01-12T09:42:23.997Z,8.50
2023-01-12T09:45:11.285Z,8.78
2023-01-12T09:47:48.545Z,8.63
2023-01-12T09:50:20.490Z,8.10
2023-01-12T09:52:54.792Z,8.85
2023-01-12T09:55:25.178Z,8.92
2023-01-12T09:57:58.378Z,9.11
2023-01-12T10:00:28.173Z,10.19
2023-01-12T10:03:10.697Z,10.87
2023-01-12T10:05:42.359Z,10.36
2023-01-12T10:08:33.785Z,9.93
2023-01-12T10:11:30.493Z,10.20
2023-01-12T10:14:18.009Z,9.77
2023-01-12T10:16:51.430Z,9.24
2023-01-12T10:19:27.886Z,9.48
2023-01-12T10:21:56.177Z,9.20
2023-01-12T10:24:25.572Z,9.89
2023-01-12T10:27:01.375Z,9.89
2023-01-12T10:29:31.856Z,10.69
2023-01-12T10:31:59.463Z,10.88
2023-01-12T10:34:26.965Z,9.74
2023-01-12T10:36:59.513Z,9.95
2023-01-12T10:39:35.686Z,9.77
2023-01-12T10:42:43.989Z,9.74
2023-01-12T10:45:18.713Z,10.13
2023-01-12T10:47:47.210Z,9.29
2023-01-12T10:50:27.971Z,9.79
2023-01-12T10:53:05.896Z,10.13
2023-01-12T10:55:38.324Z,9.87
2023-01-12T10:58:19.668Z,10.12
2023-01-12T11:00:49.765Z,10.09
2023-01-12T11:03:32.065Z,10.07
2023-01-12T11:06:18.402Z,9.61
2023-01-12T11:08:45.796Z,10.24
2023-01-12T11:11:31.057Z,10.30
2023-01-12T11:14:03.400Z,10.37
2023-01-12T11:16:32.140Z,10.61
2023-01-12T11:19:31.469Z,10.66
2023-01-12T11:22:13.372Z,10.83
2023-01-12T11:24:57.330Z,10.82
2023-01-12T11:27:27.535Z,11.04
2023-01-12T11:29:58.835Z,10.82
2023-01-12T11:32:38.195Z,11.02
2023-01-12T11:35:22.517Z,11.00
2023-01-12T11:37:54.105Z,10.92
2023-01-12T11:40:32.991Z,10.82
2023-01-12T11:43:34.704Z,10.51
2023-01-12T11:46:22.658Z,10.48
2023-01-12T11:49:08.540Z,10.79
2023-01-12T11:51:36.455Z,10.81
2023-01-12T11:54:06.600Z,10.59
2023-01-12T11:57:01.263Z,10.78
2023-01-12T12:00:00.710Z,10.60
2023-01-12T12:02:37.533Z,10.73
2023-01-12T12:05:23.467Z,10.76
2023-01-12T12:07:53.594Z,10.52
2023-01-12T12:10:34.906Z,10.35
2023-01-12T12:13:30.714Z,10.08
2023-01-12T12:16:16.397Z,10.20
2023-01-12T12:18:56.094Z,10.61
2023-01-12T12:21:41.608Z,10.65
2023-01-12T12:24:14.908Z,10.55
2023-01-12T12:26:48.190Z,10.69
2023-01-12T12:29:31.186Z,10.51
2023-01-12T12:32:13.490Z,10.59
2023-01-12T12:34:49.293Z,10.63
2023-01-12T12:37:22.362Z,10.94
2023-01-12T12:39:57.296Z,10.92
2023-01-12T12:42:54.521Z,10.88
2023-01-12T12:46:00.179Z,10.93
2023-01-12T12:48:36.327Z,11.16
2023-01-12T12:51:07.744Z,11.06
2023-01-12T12:53:42.198Z,11.33
2023-01-12T12:56:16.114Z,11.19
2023-01-12T12:58:47.273Z,11.17
2023-01-12T13:01:20.566Z,11.20
2023-01-12T13:03:56.367Z,11.34
2023-01-12T13:06:29.575Z,11.45
2023-01-12T13:08:59.549Z,11.46
2023-01-12T13:11:57.872Z,11.66
2023-01-12T13:14:36.024Z,11.78
2023-01-12T13:17:29.145Z,11.89
2023-01-12T13:20:08.509Z,11.83
2023-01-12T13:22:46.630Z,11.83
2023-01-12T13:25:16.752Z,12.01
2023-01-12T13:28:03.997Z,12.10
2023-01-12T13:30:31.514Z,11.85
2023-01-12T13:33:00.277Z,11.97
2023-01-12T13:35:47.636Z,11.83
2023-01-12T13:38:43.906Z,11.57
2023-01-12T13:41:11.906Z,11.87
2023-01-12T13:43:49.793Z,11.97
2023-01-12T13:46:37.870Z,12.08
2023-01-12T13:49:30.521Z,11.96
2023-01-12T13:52:05.190Z,11.93
2023-01-12T13:54:37.255Z,11.85
2023-01-12T13:57:26.316Z,11.79
2023-01-12T14:00:11.940Z,11.49
2023-01-12T14:02:42.370Z,11.22
2023-01-12T14:05:35.951Z,11.52
2023-01-12T14:08:51.754Z,11.83
2023-01-12T14:11:30.269Z,11.91
2023-01-12T14:14:57.764Z,11.75
2023-01-12T14:17:49.915Z,11.90
2023-01-12T14:20:33.009Z,11.96
2023-01-12T14:23:17.143Z,12.03
2023-01-12T14:25:46.566Z,12.00
2023-01-12T14:28:24.601Z,11.94
2023-01-12T14:30:54.580Z,11.79
2023-01-12T14:33:34.395Z,11.81
2023-01-12T14:36:17.823Z,11.87
2023-01-12T14:38:46.213Z,11.61
2023-01-12T14:41:39.124Z,11.69
2023-01-12T14:44:33.453Z,11.75
2023-01-12T14:47:01.005Z,11.87
2023-01-12T14:49:31.630Z,11.99
2023-01-12T14:52:21.989Z,11.86
2023-01-12T14:54:49.743Z,11.83
2023-01-12T14:57:26.885Z,11.82
2023-01-12T14:59:55.075Z,11.73
2023-01-12T15:02:39.088Z,11.67
2023-01-12T15:05:19.861Z,11.65
2023-01-12T15:07:55.954Z,11.52
2023-01-12T15:10:42.376Z,11.55
2023-01-12T15:13:40.807Z,11.45
2023-01-12T15:16:28.016Z,11.28
2023-01-12T15:19:13.766Z,11.15
2023-01-12T15:22:02.796Z,11.08
2023-01-12T15:24:51.900Z,10.99
2023-01-12T15:27:22.545Z,10.91
2023-01-12T15:29:50.780Z,10.80
2023-01-12T15:32:21.230Z,10.63
2023-01-12T15:34:52.279Z,10.57
2023-01-12T15:37:20.734Z,10.51
2023-01-12T15:39:48.353Z,10.37
2023-01-12T15:42:22.279Z,10.16
2023-01-12T15:44:51.778Z,10.06
2023-01-12T15:47:20.455Z,9.92
2023-01-12T15:49:49.134Z,9.85
2023-01-12T15:52:22.744Z,9.68
2023-01-12T15:54:50.940Z,9.52
2023-01-12T15:57:18.968Z,9.49
2023-01-12T15:59:46.401Z,9.08
2023-01-12T16:02:35.331Z,8.93
2023-01-12T16:05:06.447Z,8.90
2023-01-12T16:07:34.025Z,8.91
2023-01-12T16:10:01.620Z,8.84
2023-01-12T16:12:29.170Z,8.83
2023-01-12T16:14:58.672Z,8.72
2023-01-12T16:17:26.287Z,8.73
2023-01-12T16:19:56.759Z,8.65
2023-01-12T16:22:26.889Z,8.45
2023-01-12T16:24:57.307Z,8.37
2023-01-12T16:27:26.884Z,8.35
2023-01-12T16:29:54.733Z,8.34
2023-01-12T16:32:26.522Z,8.35
2023-01-12T16:34:54.217Z,8.47
2023-01-12T16:37:23.250Z,8.48
2023-01-12T16:39:50.745Z,8.46
2023-01-12T16:42:18.393Z,8.42
2023-01-12T16:44:49.464Z,8.41
2023-01-12T16:47:19.669Z,8.40
2023-01-12T16:49:51.185Z,8.32
2023-01-12T16:52:22.176Z,8.26
2023-01-12T16:54:49.674Z,8.15
2023-01-12T16:57:18.271Z,8.03
2023-01-12T16:59:45.988Z,8.00
2023-01-12T17:02:17.577Z,7.93
2023-01-12T17:04:45.868Z,7.97
2023-01-12T17:07:13.674Z,7.88
2023-01-12T17:09:41.269Z,7.87
2023-01-12T17:12:09.015Z,7.74
2023-01-12T17:14:36.796Z,7.57
2023-01-12T17:17:08.328Z,7.72
2023-01-12T17:19:37.982Z,7.71
2023-01-12T17:22:07.789Z,7.43
2023-01-12T17:24:39.754Z,7.48
2023-01-12T17:27:09.204Z,7.49
2023-01-12T17:29:37.245Z,7.42
2023-01-12T17:32:06.806Z,7.39
2023-01-12T17:34:41.658Z,7.19
2023-01-12T17:37:10.541Z,7.28
2023-01-12T17:39:50.047Z,7.06
2023-01-12T17:42:36.321Z,7.12
2023-01-12T17:45:05.513Z,7.10
2023-01-12T17:47:42.135Z,7.26
2023-01-12T17:50:11.317Z,7.16
2023-01-12T17:52:41.178Z,7.09
2023-01-12T17:55:08.931Z,6.93
2023-01-12T17:57:36.788Z,6.91
2023-01-12T18:00:06.739Z,6.95
2023-01-12T18:02:40.437Z,6.80
2023-01-12T18:05:08.522Z,6.78
2023-01-12T18:07:36.489Z,6.70
2023-01-12T18:10:04.281Z,6.68
2023-01-12T18:12:32.003Z,6.72
2023-01-12T18:15:01.546Z,6.76
2023-01-12T18:17:32.935Z,6.77
2023-01-12T18:20:00.375Z,6.75
2023-01-12T18:22:27.849Z,6.74
2023-01-12T18:24:55.761Z,6.52
2023-01-12T18:27:25.919Z,6.69
2023-01-12T18:29:54.251Z,6.62
2023-01-12T18:32:21.763Z,6.68
2023-01-12T18:34:49.421Z,6.59
2023-01-12T18:37:17.274Z,6.63
2023-01-12T18:39:48.608Z,6.50
2023-01-12T18:42:34.560Z,6.32
2023-01-12T18:45:04.983Z,6.38
2023-01-12T18:47:56.952Z,6.35
2023-01-12T18:50:42.861Z,6.47
2023-01-12T18:53:25.377Z,6.35
2023-01-12T18:55:56.959Z,6.48
2023-01-12T18:58:27.535Z,6.52
2023-01-12T19:01:02.780Z,6.53
2023-01-12T19:03:31.054Z,6.51
2023-01-12T19:06:19.274Z,6.52
2023-01-12T19:09:05.445Z,6.40
2023-01-12T19:11:33.079Z,6.25
2023-01-12T19:14:18.865Z,6.22
2023-01-12T19:17:04.652Z,6.21
2023-01-12T19:19:32.419Z,6.24
2023-01-12T19:22:18.663Z,6.27
2023-01-12T19:25:04.331Z,6.07
2023-01-12T19:27:50.528Z,6.27
2023-01-12T19:30:18.026Z,6.16
2023-01-12T19:32:45.490Z,6.04
2023-01-12T19:35:13.070Z,6.34
2023-01-12T19:37:45.902Z,6.34
2023-01-12T19:40:21.102Z,6.30
2023-01-12T19:43:06.718Z,6.44
2023-01-12T19:45:37.146Z,6.58
2023-01-12T19:48:04.869Z,6.29
2023-01-12T19:50:32.308Z,6.25
2023-01-12T19:52:59.971Z,6.12
2023-01-12T19:55:27.326Z,6.33
2023-01-12T19:57:55.069Z,6.20
2023-01-12T20:00:22.714Z,5.74
2023-01-12T20:02:50.149Z,6.03
2023-01-12T20:05:22.573Z,6.33
2023-01-12T20:07:52.717Z,6.41
2023-01-12T20:10:23.733Z,6.26
2023-01-12T20:12:52.438Z,5.63
2023-01-12T20:15:20.828Z,5.79
2023-01-12T20:17:49.287Z,5.59
2023-01-12T20:20:17.396Z,5.67
2023-01-12T20:22:45.100Z,5.88
2023-01-12T20:25:12.541Z,5.98
2023-01-12T20:27:40.255Z,6.07
2023-01-12T20:30:08.411Z,5.97
2023-01-12T20:32:41.635Z,5.97
2023-01-12T20:35:13.344Z,5.76
2023-01-12T20:37:42.043Z,5.73
2023-01-12T20:40:11.608Z,5.92
2023-01-12T20:42:39.944Z,6.02
2023-01-12T20:45:09.612Z,6.00
2023-01-12T20:47:37.413Z,6.29
2023-01-12T20:50:07.623Z,6.05
2023-01-12T20:52:35.470Z,5.79
2023-01-12T20:55:02.945Z,5.95
2023-01-12T20:57:31.736Z,6.12
2023-01-12T20:59:59.297Z,5.92
2023-01-12T21:02:27.495Z,6.07
2023-01-12T21:04:55.120Z,6.14
2023-01-12T21:07:22.481Z,6.27
2023-01-12T21:09:52.026Z,6.18
2023-01-12T21:12:21.773Z,6.30
2023-01-12T21:14:50.220Z,6.38
2023-01-12T21:17:19.092Z,6.33
2023-01-12T21:19:46.748Z,6.28
2023-01-12T21:22:14.376Z,6.34
2023-01-12T21:24:41.897Z,6.33
2023-01-12T21:27:13.147Z,6.45
2023-01-12T21:29:40.595Z,6.31
2023-01-12T21:32:08.351Z,6.34
2023-01-12T21:34:35.856Z,6.28
2023-01-12T21:37:03.326Z,5.97
2023-01-12T21:39:31.014Z,6.21
2023-01-12T21:42:16.875Z,6.04
2023-01-12T21:44:44.700Z,6.20
2023-01-12T21:47:12.089Z,6.20
2023-01-12T21:49:39.536Z,6.22
2023-01-12T21:52:06.970Z,6.30
2023-01-12T21:54:34.600Z,6.04
2023-01-12T21:57:02.153Z,5.83
2023-01-12T21:59:29.730Z,6.15
2023-01-12T22:01:57.633Z,5.95
2023-01-12T22:04:25.229Z,5.80
2023-01-12T22:06:53.119Z,6.31
2023-01-12T22:09:20.847Z,6.12
2023-01-12T22:11:48.272Z,6.13
2023-01-12T22:14:15.787Z,6.20
2023-01-12T22:16:43.237Z,6.19
2023-01-12T22:19:10.678Z,5.88
2023-01-12T22:21:38.496Z,5.93
2023-01-12T22:24:06.432Z,5.72
2023-01-12T22:26:33.929Z,5.77
2023-01-12T22:29:01.438Z,5.88
2023-01-12T22:31:29.119Z,5.76
2023-01-12T22:34:06.577Z,5.93
2023-01-12T22:36:42.691Z,5.83
2023-01-12T22:39:13.428Z,5.75
2023-01-12T22:41:41.299Z,6.07
2023-01-12T22:44:08.839Z,5.86
2023-01-12T22:46:37.008Z,5.94
2023-01-12T22:49:04.651Z,5.92
2023-01-12T22:51:32.184Z,5.97
2023-01-12T22:54:00.071Z,6.11
2023-01-12T22:56:27.658Z,6.18
2023-01-12T22:58:55.882Z,6.03
2023-01-12T23:01:25.602Z,6.01
2023-01-12T23:03:57.625Z,6.02
2023-01-12T23:06:26.370Z,6.04
2023-01-12T23:08:53.979Z,6.08
2023-01-12T23:11:26.589Z,6.09
2023-01-12T23:13:57.361Z,5.92
2023-01-12T23:16:25.983Z,6.08
2023-01-12T23:18:55.216Z,5.92
2023-01-12T23:21:26.514Z,5.69
2023-01-12T23:23:58.728Z,5.49
2023-01-12T23:26:30.911Z,5.77
2023-01-12T23:29:00.616Z,5.63
2023-01-12T23:31:30.472Z,5.73
2023-01-12T23:33:58.075Z,5.43
2023-01-12T23:36:27.820Z,5.60
2023-01-12T23:38:59.575Z,5.64
2023-01-12T23:41:29.298Z,5.88
2023-01-12T23:43:59.556Z,5.99
2023-01-12T23:46:28.983Z,5.90
2023-01-12T23:48:57.857Z,5.95
2023-01-12T23:51:27.526Z,5.74
2023-01-12T23:53:59.753Z,5.88
2023-01-12T23:56:29.559Z,5.81
2023-01-12T23:58:57.124Z,5.76
